createdAt,value
2022-10-25T00:00:32.000Z,1003.8
2022-10-25T00:01:45.000Z,1003.8
2022-10-25T00:02:57.000Z,1003.7
2022-10-25T00:04:09.000Z,1003.7
2022-10-25T00:05:21.000Z,1003.7
2022-10-25T00:06:32.000Z,1003.7
2022-10-25T00:07:44.000Z,1003.7
2022-10-25T00:08:57.000Z,1003.7
2022-10-25T00:10:09.000Z,1003.8
2022-10-25T00:11:21.000Z,1003.7
2022-10-25T00:12:33.000Z,1003.7
2022-10-25T00:13:45.000Z,1003.7
2022-10-25T00:14:58.000Z,1003.7
2022-10-25T00:16:10.000Z,1003.7
2022-10-25T00:17:22.000Z,1003.8
2022-10-25T00:18:34.000Z,1003.8
2022-10-25T00:19:46.000Z,1003.8
2022-10-25T00:20:59.000Z,1003.8
2022-10-25T00:22:10.000Z,1003.8
2022-10-25T00:23:22.000Z,1003.8
2022-10-25T00:24:34.000Z,1003.8
2022-10-25T00:25:46.000Z,1003.9
2022-10-25T00:26:58.000Z,1003.9
2022-10-25T00:28:11.000Z,1003.9
2022-10-25T00:29:23.000Z,1003.9
2022-10-25T00:30:35.000Z,1003.9
2022-10-25T00:31:47.000Z,1003.9
2022-10-25T00:32:59.000Z,1003.9
2022-10-25T00:34:12.000Z,1003.9
2022-10-25T00:35:24.000Z,1003.9
2022-10-25T00:36:36.000Z,1003.9
2022-10-25T00:37:47.000Z,1003.9
2022-10-25T00:38:59.000Z,1003.9
2022-10-25T00:40:11.000Z,1003.9
2022-10-25T00:41:24.000Z,1003.9
2022-10-25T00:42:36.000Z,1003.9
2022-10-25T00:43:48.000Z,1004
2022-10-25T00:45:00.000Z,1004
2022-10-25T00:46:12.000Z,1004
2022-10-25T00:47:25.000Z,1004
2022-10-25T00:48:37.000Z,1004.1
2022-10-25T00:49:49.000Z,1004
2022-10-25T00:51:01.000Z,1004.1
2022-10-25T00:52:13.000Z,1004
2022-10-25T00:53:25.000Z,1004.1
2022-10-25T00:54:37.000Z,1004
2022-10-25T00:55:49.000Z,1004
2022-10-25T00:57:01.000Z,1004
2022-10-25T00:58:13.000Z,1004
2022-10-25T00:59:25.000Z,1004
2022-10-25T01:00:38.000Z,1004
2022-10-25T01:01:50.000Z,1004.1
2022-10-25T01:03:02.000Z,1004
2022-10-25T01:04:14.000Z,1004
2022-10-25T01:05:26.000Z,1004
2022-10-25T01:06:39.000Z,1004.1
2022-10-25T01:07:51.000Z,1004.1
2022-10-25T01:09:02.000Z,1004
2022-10-25T01:10:14.000Z,1004.1
2022-10-25T01:11:26.000Z,1004.1
2022-10-25T01:12:38.000Z,1004
2022-10-25T01:13:51.000Z,1004.1
2022-10-25T01:15:03.000Z,1004.1
2022-10-25T01:16:15.000Z,1004.1
2022-10-25T01:17:27.000Z,1004
2022-10-25T01:18:39.000Z,1004.1
2022-10-25T01:19:52.000Z,1004.1
2022-10-25T01:21:04.000Z,1004.1
2022-10-25T01:22:16.000Z,1004
2022-10-25T01:23:28.000Z,1004
2022-10-25T01:24:39.000Z,1003.9
2022-10-25T01:25:52.000Z,1004
2022-10-25T01:27:04.000Z,1003.9
2022-10-25T01:28:16.000Z,1004
2022-10-25T01:29:28.000Z,1004.1
2022-10-25T01:30:40.000Z,1004
2022-10-25T01:31:52.000Z,1004
2022-10-25T01:33:05.000Z,1004.1
2022-10-25T01:34:17.000Z,1004
2022-10-25T01:35:29.000Z,1004
2022-10-25T01:36:41.000Z,1004
2022-10-25T01:37:53.000Z,1004
2022-10-25T01:39:06.000Z,1004
2022-10-25T01:40:17.000Z,1004.1
2022-10-25T01:41:29.000Z,1004
2022-10-25T01:42:41.000Z,1004.1
2022-10-25T01:43:53.000Z,1004.1
2022-10-25T01:45:05.000Z,1004.1
2022-10-25T01:46:18.000Z,1004.1
2022-10-25T01:47:30.000Z,1004.1
2022-10-25T01:48:42.000Z,1004.1
2022-10-25T01:49:54.000Z,1004.1
2022-10-25T01:51:06.000Z,1004.1
2022-10-25T01:52:19.000Z,1004.1
2022-10-25T01:53:31.000Z,1004.1
2022-10-25T01:54:43.000Z,1004.1
2022-10-25T01:55:54.000Z,1004.1
2022-10-25T01:57:06.000Z,1004
2022-10-25T01:58:19.000Z,1004
2022-10-25T01:59:31.000Z,1004
2022-10-25T02:00:43.000Z,1004
2022-10-25T02:01:55.000Z,1003.9
2022-10-25T02:03:07.000Z,1003.9
2022-10-25T02:04:19.000Z,1003.9
2022-10-25T02:05:32.000Z,1003.9
2022-10-25T02:06:44.000Z,1003.9
2022-10-25T02:07:56.000Z,1003.9
2022-10-25T02:09:08.000Z,1003.9
2022-10-25T02:10:20.000Z,1004
2022-10-25T02:11:32.000Z,1004
2022-10-25T02:12:44.000Z,1003.9
2022-10-25T02:13:56.000Z,1004
2022-10-25T02:15:08.000Z,1004
2022-10-25T02:16:20.000Z,1004
2022-10-25T02:17:32.000Z,1004
2022-10-25T02:18:45.000Z,1004
2022-10-25T02:19:57.000Z,1004
2022-10-25T02:21:09.000Z,1004
2022-10-25T02:22:21.000Z,1004
2022-10-25T02:23:33.000Z,1004
2022-10-25T02:24:46.000Z,1004
2022-10-25T02:25:58.000Z,1004
2022-10-25T02:27:09.000Z,1004
2022-10-25T02:28:21.000Z,1004.1
2022-10-25T02:29:33.000Z,1004
2022-10-25T02:30:46.000Z,1004.1
2022-10-25T02:31:58.000Z,1004.1
2022-10-25T02:33:10.378Z,1004.1
2022-10-25T02:34:22.000Z,1004.1
2022-10-25T02:35:34.000Z,1004.1
2022-10-25T02:36:46.000Z,1004.1
2022-10-25T02:37:59.000Z,1004.1
2022-10-25T02:39:11.000Z,1004.1
2022-10-25T02:40:23.000Z,1004.1
2022-10-25T02:41:35.000Z,1004.1
2022-10-25T02:42:46.000Z,1004.2
2022-10-25T02:43:59.000Z,1004.2
2022-10-25T02:45:11.000Z,1004.1
2022-10-25T02:46:23.000Z,1004.1
2022-10-25T02:47:35.000Z,1004.2
2022-10-25T02:48:47.000Z,1004.2
2022-10-25T02:49:59.000Z,1004.1
2022-10-25T02:51:12.000Z,1004.1
2022-10-25T02:52:24.000Z,1004.1
2022-10-25T02:53:36.000Z,1004.1
2022-10-25T02:54:48.000Z,1004.1
2022-10-25T02:56:00.000Z,1004.1
2022-10-25T02:57:13.000Z,1004.2
2022-10-25T02:58:24.000Z,1004.2
2022-10-25T02:59:36.000Z,1004.2
2022-10-25T03:00:48.000Z,1004.2
2022-10-25T03:02:00.000Z,1004.2
2022-10-25T03:03:13.000Z,1004.2
2022-10-25T03:04:25.000Z,1004.2
2022-10-25T03:05:37.000Z,1004.2
2022-10-25T03:06:49.000Z,1004.2
2022-10-25T03:08:01.000Z,1004.3
2022-10-25T03:09:13.000Z,1004.3
2022-10-25T03:10:26.000Z,1004.3
2022-10-25T03:11:38.000Z,1004.3
2022-10-25T03:12:50.000Z,1004.3
2022-10-25T03:14:01.000Z,1004.4
2022-10-25T03:15:13.000Z,1004.3
2022-10-25T03:16:26.000Z,1004.3
2022-10-25T03:17:38.000Z,1004.3
2022-10-25T03:18:50.000Z,1004.4
2022-10-25T03:20:02.000Z,1004.4
2022-10-25T03:21:13.000Z,1004.4
2022-10-25T03:22:25.000Z,1004.4
2022-10-25T03:23:38.000Z,1004.4
2022-10-25T03:24:50.000Z,1004.3
2022-10-25T03:26:02.000Z,1004.4
2022-10-25T03:27:14.000Z,1004.3
2022-10-25T03:28:26.000Z,1004.4
2022-10-25T03:29:39.000Z,1004.4
2022-10-25T03:30:51.000Z,1004.4
2022-10-25T03:32:03.000Z,1004.4
2022-10-25T03:33:15.000Z,1004.4
2022-10-25T03:34:27.000Z,1004.4
2022-10-25T03:35:40.000Z,1004.4
2022-10-25T03:36:52.000Z,1004.5
2022-10-25T03:38:03.000Z,1004.4
2022-10-25T03:39:15.000Z,1004.5
2022-10-25T03:40:27.000Z,1004.5
2022-10-25T03:41:39.000Z,1004.6
2022-10-25T03:42:52.000Z,1004.6
2022-10-25T03:44:04.000Z,1004.6
2022-10-25T03:45:16.000Z,1004.6
2022-10-25T03:46:28.000Z,1004.6
2022-10-25T03:47:40.000Z,1004.6
2022-10-25T03:48:53.000Z,1004.6
2022-10-25T03:50:05.000Z,1004.6
2022-10-25T03:51:17.000Z,1004.6
2022-10-25T03:52:29.000Z,1004.6
2022-10-25T03:53:40.000Z,1004.6
2022-10-25T03:54:52.000Z,1004.6
2022-10-25T03:56:05.000Z,1004.6
2022-10-25T03:57:17.000Z,1004.6
2022-10-25T03:58:29.000Z,1004.6
2022-10-25T03:59:41.000Z,1004.7
2022-10-25T04:00:53.000Z,1004.6
2022-10-25T04:02:06.000Z,1004.7
2022-10-25T04:03:18.000Z,1004.6
2022-10-25T04:04:30.000Z,1004.7
2022-10-25T04:05:42.000Z,1004.7
2022-10-25T04:06:54.000Z,1004.7
2022-10-25T04:08:07.000Z,1004.8
2022-10-25T04:09:18.000Z,1004.8
2022-10-25T04:10:30.000Z,1004.7
2022-10-25T04:11:42.000Z,1004.7
2022-10-25T04:12:54.000Z,1004.8
2022-10-25T04:14:06.000Z,1004.8
2022-10-25T04:15:19.000Z,1004.8
2022-10-25T04:16:31.000Z,1004.8
2022-10-25T04:17:43.000Z,1004.9
2022-10-25T04:18:55.000Z,1004.9
2022-10-25T04:20:07.000Z,1004.8
2022-10-25T04:21:20.000Z,1004.8
2022-10-25T04:22:32.000Z,1004.8
2022-10-25T04:23:44.000Z,1004.9
2022-10-25T04:24:55.000Z,1004.9
2022-10-25T04:26:07.000Z,1004.8
2022-10-25T04:27:19.000Z,1004.9
2022-10-25T04:28:32.000Z,1004.8
2022-10-25T04:29:44.000Z,1004.8
2022-10-25T04:30:56.000Z,1004.8
2022-10-25T04:32:08.000Z,1004.9
2022-10-25T04:33:20.000Z,1004.8
2022-10-25T04:34:33.000Z,1004.8
2022-10-25T04:35:45.000Z,1004.8
2022-10-25T04:36:57.000Z,1004.8
2022-10-25T04:38:09.000Z,1004.8
2022-10-25T04:39:21.000Z,1004.8
2022-10-25T04:40:33.000Z,1004.8
2022-10-25T04:41:45.000Z,1004.8
2022-10-25T04:42:57.000Z,1004.8
2022-10-25T04:44:09.000Z,1004.9
2022-10-25T04:45:21.000Z,1004.8
2022-10-25T04:46:33.000Z,1004.9
2022-10-25T04:47:46.000Z,1004.9
2022-10-25T04:48:58.000Z,1004.9
2022-10-25T04:50:10.000Z,1004.9
2022-10-25T04:51:22.000Z,1004.9
2022-10-25T04:52:34.000Z,1004.9
2022-10-25T04:53:47.000Z,1004.9
2022-10-25T04:54:59.000Z,1004.9
2022-10-25T04:56:10.000Z,1005
2022-10-25T04:57:22.000Z,1004.9
2022-10-25T04:58:34.000Z,1005
2022-10-25T04:59:47.000Z,1005
2022-10-25T05:00:59.000Z,1005
2022-10-25T05:02:11.000Z,1005
2022-10-25T05:03:23.000Z,1005.1
2022-10-25T05:04:35.000Z,1005
2022-10-25T05:05:47.000Z,1005
2022-10-25T05:08:12.000Z,1005.1
2022-10-25T05:09:24.000Z,1005.1
2022-10-25T05:10:36.000Z,1005.1
2022-10-25T05:11:47.000Z,1005.1
2022-10-25T05:13:00.000Z,1005.1
2022-10-25T05:14:12.000Z,1005.1
2022-10-25T05:15:24.000Z,1005.1
2022-10-25T05:16:36.000Z,1005.1
2022-10-25T05:17:48.000Z,1005.1
2022-10-25T05:19:00.000Z,1005.2
2022-10-25T05:20:13.000Z,1005.2
2022-10-25T05:21:25.000Z,1005.2
2022-10-25T05:22:37.000Z,1005.2
2022-10-25T05:23:49.000Z,1005.2
2022-10-25T05:25:01.000Z,1005.2
2022-10-25T05:26:14.000Z,1005.2
2022-10-25T05:27:25.000Z,1005.3
2022-10-25T05:28:37.000Z,1005.3
2022-10-25T05:29:49.000Z,1005.3
2022-10-25T05:31:01.000Z,1005.2
2022-10-25T05:32:14.000Z,1005.3
2022-10-25T05:33:26.000Z,1005.2
2022-10-25T05:34:38.000Z,1005.2
2022-10-25T05:35:50.000Z,1005.2
2022-10-25T05:37:02.000Z,1005.2
2022-10-25T05:38:14.000Z,1005.3
2022-10-25T05:39:27.000Z,1005.3
2022-10-25T05:40:39.000Z,1005.3
2022-10-25T05:41:51.000Z,1005.3
2022-10-25T05:43:02.000Z,1005.3
2022-10-25T05:44:14.000Z,1005.4
2022-10-25T05:45:27.000Z,1005.3
2022-10-25T05:46:39.000Z,1005.4
2022-10-25T05:47:51.000Z,1005.3
2022-10-25T05:49:03.000Z,1005.3
2022-10-25T05:50:15.000Z,1005.4
2022-10-25T05:51:28.000Z,1005.4
2022-10-25T05:52:40.000Z,1005.3
2022-10-25T05:53:52.000Z,1005.4
2022-10-25T05:55:04.000Z,1005.4
2022-10-25T05:56:16.000Z,1005.5
2022-10-25T05:57:28.000Z,1005.5
2022-10-25T05:58:41.000Z,1005.5
2022-10-25T05:59:53.000Z,1005.4
2022-10-25T06:01:04.000Z,1005.5
2022-10-25T06:02:16.000Z,1005.4
2022-10-25T06:03:28.000Z,1005.4
2022-10-25T06:04:41.000Z,1005.5
2022-10-25T06:05:53.000Z,1005.5
2022-10-25T06:07:05.000Z,1005.5
2022-10-25T06:08:17.000Z,1005.5
2022-10-25T06:09:29.000Z,1005.6
2022-10-25T06:10:41.000Z,1005.6
2022-10-25T06:11:54.000Z,1005.5
2022-10-25T06:13:06.000Z,1005.5
2022-10-25T06:14:18.000Z,1005.6
2022-10-25T06:15:30.000Z,1005.7
2022-10-25T06:17:54.000Z,1005.7
2022-10-25T06:19:06.000Z,1005.7
2022-10-25T06:20:18.000Z,1005.7
2022-10-25T06:21:30.000Z,1005.7
2022-10-25T06:22:42.000Z,1005.7
2022-10-25T06:23:55.000Z,1005.7
2022-10-25T06:25:07.000Z,1005.8
2022-10-25T06:26:19.000Z,1005.7
2022-10-25T06:27:31.000Z,1005.8
2022-10-25T06:28:43.000Z,1005.8
2022-10-25T06:29:55.000Z,1005.8
2022-10-25T06:31:08.000Z,1005.9
2022-10-25T06:32:19.000Z,1005.8
2022-10-25T06:33:31.000Z,1005.9
2022-10-25T06:34:43.000Z,1005.9
2022-10-25T06:35:55.000Z,1005.9
2022-10-25T06:37:08.000Z,1005.9
2022-10-25T06:38:20.000Z,1005.9
2022-10-25T06:40:44.000Z,1005.9
2022-10-25T06:41:56.000Z,1005.9
2022-10-25T06:43:09.000Z,1006
2022-10-25T06:44:21.000Z,1006
2022-10-25T06:45:33.000Z,1006
2022-10-25T06:46:45.000Z,1006
2022-10-25T06:47:56.000Z,1006
2022-10-25T06:49:08.000Z,1006.1
2022-10-25T06:50:21.000Z,1006.1
2022-10-25T06:51:33.000Z,1006.1
2022-10-25T06:52:45.000Z,1006.1
2022-10-25T06:53:57.000Z,1006.2
2022-10-25T06:55:09.000Z,1006.1
2022-10-25T06:56:22.000Z,1006.1
2022-10-25T06:57:34.000Z,1006.2
2022-10-25T06:58:46.000Z,1006.2
2022-10-25T06:59:58.000Z,1006.2
2022-10-25T07:01:10.000Z,1006.2
2022-10-25T07:02:23.000Z,1006.2
2022-10-25T07:03:34.000Z,1006.2
2022-10-25T07:04:46.000Z,1006.2
2022-10-25T07:05:58.000Z,1006.3
2022-10-25T07:07:10.000Z,1006.2
2022-10-25T07:08:22.000Z,1006.3
2022-10-25T07:09:35.000Z,1006.2
2022-10-25T07:10:47.000Z,1006.3
2022-10-25T07:11:59.000Z,1006.3
2022-10-25T07:13:11.000Z,1006.2
2022-10-25T07:14:23.000Z,1006.3
2022-10-25T07:15:36.000Z,1006.3
2022-10-25T07:16:48.000Z,1006.3
2022-10-25T07:18:00.000Z,1006.4
2022-10-25T07:19:11.000Z,1006.3
2022-10-25T07:20:23.000Z,1006.3
2022-10-25T07:21:36.000Z,1006.3
2022-10-25T07:22:47.000Z,1006.3
2022-10-25T07:23:59.000Z,1006.4
2022-10-25T07:25:11.000Z,1006.4
2022-10-25T07:26:23.000Z,1006.4
2022-10-25T07:27:35.000Z,1006.4
2022-10-25T07:28:48.000Z,1006.4
2022-10-25T07:30:00.000Z,1006.3
2022-10-25T07:31:12.000Z,1006.3
2022-10-25T07:32:24.000Z,1006.3
2022-10-25T07:33:36.000Z,1006.3
2022-10-25T07:34:49.000Z,1006.4
2022-10-25T07:36:01.000Z,1006.4
2022-10-25T07:37:13.000Z,1006.3
2022-10-25T07:38:24.000Z,1006.3
2022-10-25T07:39:36.000Z,1006.3
2022-10-25T07:40:49.000Z,1006.4
2022-10-25T07:42:01.000Z,1006.4
2022-10-25T07:43:13.000Z,1006.4
2022-10-25T07:44:25.000Z,1006.4
2022-10-25T07:45:37.000Z,1006.4
2022-10-25T07:46:49.000Z,1006.4
2022-10-25T07:48:02.000Z,1006.4
2022-10-25T07:49:14.000Z,1006.4
2022-10-25T07:50:26.000Z,1006.3
2022-10-25T07:51:38.000Z,1006.3
2022-10-25T07:52:50.000Z,1006.4
2022-10-25T07:54:02.000Z,1006.4
2022-10-25T07:55:14.000Z,1006.5
2022-10-25T07:56:26.000Z,1006.5
2022-10-25T07:57:38.000Z,1006.5
2022-10-25T07:58:50.803Z,1006.5
2022-10-25T08:00:02.000Z,1006.5
2022-10-25T08:01:15.000Z,1006.5
2022-10-25T08:02:27.000Z,1006.6
2022-10-25T08:03:39.000Z,1006.6
2022-10-25T08:04:51.000Z,1006.6
2022-10-25T08:06:03.000Z,1006.6
2022-10-25T08:07:16.000Z,1006.6
2022-10-25T08:08:28.000Z,1006.6
2022-10-25T08:09:39.000Z,1006.7
2022-10-25T08:10:51.000Z,1006.7
2022-10-25T08:12:03.000Z,1006.7
2022-10-25T08:13:16.000Z,1006.7
2022-10-25T08:15:40.000Z,1006.7
2022-10-25T08:16:52.000Z,1006.7
2022-10-25T08:18:04.000Z,1006.8
2022-10-25T08:19:16.000Z,1006.7
2022-10-25T08:20:29.000Z,1006.8
2022-10-25T08:20:46.000Z,1006.7
2022-10-25T08:21:41.000Z,1006.8
2022-10-25T08:22:53.000Z,1006.7
2022-10-25T08:24:05.000Z,1006.8
2022-10-25T08:25:16.000Z,1006.8
2022-10-25T08:26:29.000Z,1006.8
2022-10-25T08:27:41.000Z,1006.8
2022-10-25T08:28:53.000Z,1006.8
2022-10-25T08:30:05.000Z,1006.8
2022-10-25T08:31:17.000Z,1006.9
2022-10-25T08:32:30.000Z,1006.9
2022-10-25T08:33:42.000Z,1006.8
2022-10-25T08:34:54.000Z,1006.9
2022-10-25T08:36:06.000Z,1006.9
2022-10-25T08:37:18.000Z,1006.9
2022-10-25T08:38:30.000Z,1006.9
2022-10-25T08:39:43.000Z,1006.9
2022-10-25T08:40:54.000Z,1006.9
2022-10-25T08:42:06.000Z,1006.9
2022-10-25T08:43:18.000Z,1006.9
2022-10-25T08:44:30.000Z,1006.9
2022-10-25T08:45:43.000Z,1006.9
2022-10-25T08:46:55.000Z,1006.9
2022-10-25T08:48:07.000Z,1006.9
2022-10-25T08:49:19.000Z,1006.9
2022-10-25T08:50:31.000Z,1007
2022-10-25T08:51:44.000Z,1006.9
2022-10-25T08:52:56.000Z,1006.9
2022-10-25T08:54:08.000Z,1007
2022-10-25T08:55:20.000Z,1007
2022-10-25T08:56:31.000Z,1007
2022-10-25T08:57:43.000Z,1007
2022-10-25T08:58:56.000Z,1007
2022-10-25T09:00:08.000Z,1007
2022-10-25T09:01:20.000Z,1007
2022-10-25T09:02:32.000Z,1007
2022-10-25T09:03:44.000Z,1007
2022-10-25T09:04:57.000Z,1007
2022-10-25T09:06:09.000Z,1007
2022-10-25T09:07:21.000Z,1007
2022-10-25T09:08:33.000Z,1007
2022-10-25T09:09:45.000Z,1007
2022-10-25T09:10:57.000Z,1007
2022-10-25T09:12:09.000Z,1007
2022-10-25T09:13:21.000Z,1007
2022-10-25T09:14:33.000Z,1007
2022-10-25T09:15:45.000Z,1007
2022-10-25T09:16:57.000Z,1007
2022-10-25T09:18:10.000Z,1006.9
2022-10-25T09:19:22.000Z,1007
2022-10-25T09:20:34.000Z,1007
2022-10-25T09:21:46.000Z,1007.1
2022-10-25T09:22:58.000Z,1007
2022-10-25T09:24:11.000Z,1007
2022-10-25T09:25:23.000Z,1007.1
2022-10-25T09:26:35.000Z,1007.1
2022-10-25T09:27:46.000Z,1007.1
2022-10-25T09:28:58.000Z,1007.1
2022-10-25T09:30:10.000Z,1007.1
2022-10-25T09:31:23.000Z,1007.2
2022-10-25T09:32:35.000Z,1007.2
2022-10-25T09:33:47.000Z,1007.2
2022-10-25T09:34:59.000Z,1007.2
2022-10-25T09:36:11.000Z,1007.2
2022-10-25T09:37:24.000Z,1007.2
2022-10-25T09:38:36.000Z,1007.3
2022-10-25T09:39:48.000Z,1007.3
2022-10-25T09:41:00.000Z,1007.4
2022-10-25T09:42:12.000Z,1007.3
2022-10-25T09:43:24.000Z,1007.3
2022-10-25T09:44:36.000Z,1007.4
2022-10-25T09:45:48.000Z,1007.4
2022-10-25T09:47:00.000Z,1007.3
2022-10-25T09:48:12.000Z,1007.3
2022-10-25T09:49:24.000Z,1007.3
2022-10-25T09:50:37.000Z,1007.3
2022-10-25T09:51:49.000Z,1007.4
2022-10-25T09:53:01.000Z,1007.4
2022-10-25T09:54:13.000Z,1007.4
2022-10-25T09:55:25.000Z,1007.5
2022-10-25T09:56:38.000Z,1007.5
2022-10-25T09:57:50.000Z,1007.5
2022-10-25T09:59:01.000Z,1007.5
2022-10-25T10:00:13.000Z,1007.5
2022-10-25T10:01:25.000Z,1007.5
2022-10-25T10:02:38.000Z,1007.5
2022-10-25T10:03:50.000Z,1007.5
2022-10-25T10:05:02.000Z,1007.5
2022-10-25T10:06:14.000Z,1007.6
2022-10-25T10:07:26.000Z,1007.5
2022-10-25T10:08:38.000Z,1007.5
2022-10-25T10:09:51.000Z,1007.6
2022-10-25T10:11:03.000Z,1007.5
2022-10-25T10:12:15.000Z,1007.5
2022-10-25T10:13:27.000Z,1007.6
2022-10-25T10:14:38.000Z,1007.6
2022-10-25T10:15:51.000Z,1007.6
2022-10-25T10:17:03.000Z,1007.5
2022-10-25T10:18:15.000Z,1007.5
2022-10-25T10:19:27.000Z,1007.5
2022-10-25T10:20:39.000Z,1007.5
2022-10-25T10:21:51.000Z,1007.5
2022-10-25T10:23:04.000Z,1007.5
2022-10-25T10:24:16.000Z,1007.5
2022-10-25T10:25:28.000Z,1007.4
2022-10-25T10:26:40.000Z,1007.4
2022-10-25T10:27:52.000Z,1007.5
2022-10-25T10:29:05.000Z,1007.4
2022-10-25T10:30:16.000Z,1007.4
2022-10-25T10:31:28.000Z,1007.4
2022-10-25T10:32:40.000Z,1007.4
2022-10-25T10:33:52.000Z,1007.4
2022-10-25T10:35:05.000Z,1007.4
2022-10-25T10:36:17.000Z,1007.4
2022-10-25T10:37:29.000Z,1007.3
2022-10-25T10:38:41.000Z,1007.3
2022-10-25T10:39:53.000Z,1007.3
2022-10-25T10:41:05.000Z,1007.3
2022-10-25T10:42:18.000Z,1007.3
2022-10-25T10:43:30.000Z,1007.3
2022-10-25T10:44:42.000Z,1007.3
2022-10-25T10:45:54.000Z,1007.3
2022-10-25T10:47:05.000Z,1007.4
2022-10-25T10:48:18.000Z,1007.4
2022-10-25T10:49:30.000Z,1007.4
2022-10-25T10:50:42.000Z,1007.4
2022-10-25T10:51:54.000Z,1007.4
2022-10-25T10:53:06.000Z,1007.4
2022-10-25T10:54:19.000Z,1007.5
2022-10-25T10:55:31.000Z,1007.4
2022-10-25T10:56:43.000Z,1007.4
2022-10-25T10:57:55.000Z,1007.4
2022-10-25T10:59:07.000Z,1007.3
2022-10-25T11:00:19.000Z,1007.4
2022-10-25T11:01:32.000Z,1007.4
2022-10-25T11:02:43.000Z,1007.4
2022-10-25T11:03:55.000Z,1007.4
2022-10-25T11:05:07.000Z,1007.4
2022-10-25T11:06:19.000Z,1007.4
2022-10-25T11:07:32.000Z,1007.3
2022-10-25T11:08:44.000Z,1007.4
2022-10-25T11:09:56.000Z,1007.4
2022-10-25T11:11:08.000Z,1007.5
2022-10-25T11:12:20.000Z,1007.5
2022-10-25T11:13:32.000Z,1007.4
2022-10-25T11:14:45.000Z,1007.5
2022-10-25T11:15:57.000Z,1007.5
2022-10-25T11:17:09.000Z,1007.4
2022-10-25T11:18:20.000Z,1007.4
2022-10-25T11:19:32.000Z,1007.4
2022-10-25T11:20:45.000Z,1007.4
2022-10-25T11:21:57.000Z,1007.4
2022-10-25T11:23:09.000Z,1007.5
2022-10-25T11:24:20.000Z,1007.5
2022-10-25T11:25:32.000Z,1007.4
2022-10-25T11:26:45.000Z,1007.5
2022-10-25T11:27:57.000Z,1007.5
2022-10-25T11:29:09.000Z,1007.5
2022-10-25T11:30:21.000Z,1007.5
2022-10-25T11:31:33.000Z,1007.5
2022-10-25T11:32:45.000Z,1007.5
2022-10-25T11:33:58.000Z,1007.4
2022-10-25T11:35:10.000Z,1007.5
2022-10-25T11:36:22.000Z,1007.5
2022-10-25T11:37:34.000Z,1007.4
2022-10-25T11:38:46.000Z,1007.4
2022-10-25T11:39:58.000Z,1007.4
2022-10-25T11:41:10.000Z,1007.4
2022-10-25T11:42:22.000Z,1007.4
2022-10-25T11:43:34.000Z,1007.4
2022-10-25T11:44:46.000Z,1007.5
2022-10-25T11:45:59.000Z,1007.5
2022-10-25T11:47:11.000Z,1007.5
2022-10-25T11:48:23.000Z,1007.4
2022-10-25T11:49:35.000Z,1007.5
2022-10-25T11:50:47.000Z,1007.5
2022-10-25T11:51:59.000Z,1007.6
2022-10-25T11:53:12.000Z,1007.5
2022-10-25T11:54:24.000Z,1007.6
2022-10-25T11:55:35.000Z,1007.6
2022-10-25T11:56:47.000Z,1007.6
2022-10-25T11:57:59.000Z,1007.7
2022-10-25T12:00:24.000Z,1007.7
2022-10-25T12:01:36.000Z,1007.6
2022-10-25T12:02:48.000Z,1007.6
2022-10-25T12:04:00.000Z,1007.5
2022-10-25T12:05:13.000Z,1007.6
2022-10-25T12:05:30.000Z,1007.7
2022-10-25T12:06:25.000Z,1007.6
2022-10-25T12:07:37.000Z,1007.6
2022-10-25T12:08:49.000Z,1007.6
2022-10-25T12:10:01.000Z,1007.6
2022-10-25T12:11:12.000Z,1007.6
2022-10-25T12:12:25.000Z,1007.5
2022-10-25T12:13:37.000Z,1007.5
2022-10-25T12:14:49.000Z,1007.4
2022-10-25T12:16:01.000Z,1007.5
2022-10-25T12:17:13.000Z,1007.4
2022-10-25T12:18:26.000Z,1007.5
2022-10-25T12:19:38.000Z,1007.4
2022-10-25T12:20:50.000Z,1007.4
2022-10-25T12:22:02.000Z,1007.4
2022-10-25T12:23:14.000Z,1007.6
2022-10-25T12:24:26.000Z,1007.5
2022-10-25T12:25:39.000Z,1007.6
2022-10-25T12:26:50.000Z,1007.5
2022-10-25T12:28:02.000Z,1007.6
2022-10-25T12:29:14.000Z,1007.6
2022-10-25T12:30:26.000Z,1007.5
2022-10-25T12:31:39.000Z,1007.6
2022-10-25T12:32:51.000Z,1007.6
2022-10-25T12:34:03.000Z,1007.6
2022-10-25T12:35:15.000Z,1007.6
2022-10-25T12:36:27.000Z,1007.6
2022-10-25T12:37:40.000Z,1007.6
2022-10-25T12:38:52.000Z,1007.6
2022-10-25T12:40:04.000Z,1007.7
2022-10-25T12:41:16.000Z,1007.5
2022-10-25T12:42:27.000Z,1007.6
2022-10-25T12:43:39.000Z,1007.5
2022-10-25T12:44:52.000Z,1007.6
2022-10-25T12:46:04.000Z,1007.6
2022-10-25T12:47:16.000Z,1007.6
2022-10-25T12:48:28.000Z,1007.6
2022-10-25T12:49:40.000Z,1007.6
2022-10-25T12:50:53.000Z,1007.6
2022-10-25T12:52:05.000Z,1007.6
2022-10-25T12:53:17.000Z,1007.6
2022-10-25T12:54:29.000Z,1007.6
2022-10-25T12:55:41.000Z,1007.6
2022-10-25T12:56:54.000Z,1007.7
2022-10-25T12:58:05.000Z,1007.6
2022-10-25T12:59:17.000Z,1007.6
2022-10-25T13:00:29.000Z,1007.6
2022-10-25T13:01:41.000Z,1007.6
2022-10-25T13:02:53.000Z,1007.6
2022-10-25T13:04:06.000Z,1007.6
2022-10-25T13:05:18.000Z,1007.6
2022-10-25T13:06:30.000Z,1007.6
2022-10-25T13:07:42.000Z,1007.6
2022-10-25T13:08:54.000Z,1007.6
2022-10-25T13:10:07.000Z,1007.7
2022-10-25T13:12:31.000Z,1007.6
2022-10-25T13:13:42.000Z,1007.6
2022-10-25T13:14:54.000Z,1007.6
2022-10-25T13:16:07.000Z,1007.7
2022-10-25T13:17:19.000Z,1007.7
2022-10-25T13:17:37.000Z,1007.6
2022-10-25T13:18:31.000Z,1007.7
2022-10-25T13:19:43.000Z,1007.6
2022-10-25T13:20:55.000Z,1007.7
2022-10-25T13:22:07.000Z,1007.7
2022-10-25T13:23:20.000Z,1007.7
2022-10-25T13:24:32.000Z,1007.7
2022-10-25T13:25:44.000Z,1007.8
2022-10-25T13:26:56.000Z,1007.7
2022-10-25T13:28:08.000Z,1007.7
2022-10-25T13:29:20.000Z,1007.8
2022-10-25T13:30:32.000Z,1007.7
2022-10-25T13:31:44.000Z,1007.7
2022-10-25T13:32:56.000Z,1007.7
2022-10-25T13:35:20.000Z,1007.7
2022-10-25T13:36:33.000Z,1007.7
2022-10-25T13:37:45.000Z,1007.7
2022-10-25T13:38:57.000Z,1007.8
2022-10-25T13:40:09.000Z,1007.7
2022-10-25T13:40:27.000Z,1007.7
2022-10-25T13:41:21.000Z,1007.7
2022-10-25T13:42:34.000Z,1007.6
2022-10-25T13:43:46.000Z,1007.6
2022-10-25T13:44:57.000Z,1007.6
2022-10-25T13:46:09.000Z,1007.7
2022-10-25T13:47:21.000Z,1007.7
2022-10-25T13:48:34.000Z,1007.7
2022-10-25T13:49:46.000Z,1007.8
2022-10-25T13:50:58.000Z,1007.8
2022-10-25T13:52:10.000Z,1007.7
2022-10-25T13:53:22.000Z,1007.8
2022-10-25T13:54:34.000Z,1007.7
2022-10-25T13:55:47.000Z,1007.8
2022-10-25T13:56:59.000Z,1007.8
2022-10-25T13:58:11.000Z,1007.8
2022-10-25T13:59:23.000Z,1007.8
2022-10-25T14:00:34.000Z,1007.8
2022-10-25T14:01:47.000Z,1007.8
2022-10-25T14:04:11.000Z,1007.8
2022-10-25T14:05:23.000Z,1007.8
2022-10-25T14:06:35.000Z,1007.8
2022-10-25T14:07:48.000Z,1007.8
2022-10-25T14:09:00.000Z,1007.8
2022-10-25T14:09:17.000Z,1007.8
2022-10-25T14:10:12.000Z,1007.8
2022-10-25T14:11:24.000Z,1007.8
2022-10-25T14:12:36.000Z,1007.8
2022-10-25T14:13:48.000Z,1007.8
2022-10-25T14:15:01.000Z,1007.8
2022-10-25T14:16:12.000Z,1007.8
2022-10-25T14:17:24.000Z,1007.9
2022-10-25T14:18:36.000Z,1007.9
2022-10-25T14:19:48.000Z,1007.8
2022-10-25T14:21:01.000Z,1007.9
2022-10-25T14:22:13.000Z,1007.8
2022-10-25T14:23:25.000Z,1007.8
2022-10-25T14:24:37.000Z,1007.8
2022-10-25T14:25:49.000Z,1007.9
2022-10-25T14:27:01.000Z,1007.8
2022-10-25T14:28:14.000Z,1007.8
2022-10-25T14:29:26.000Z,1007.9
2022-10-25T14:30:38.000Z,1007.8
2022-10-25T14:31:49.000Z,1007.8
2022-10-25T14:33:01.000Z,1007.8
2022-10-25T14:34:14.000Z,1007.8
2022-10-25T14:35:26.000Z,1007.8
2022-10-25T14:36:38.000Z,1007.8
2022-10-25T14:37:50.000Z,1007.7
2022-10-25T14:39:02.000Z,1007.7
2022-10-25T14:40:15.000Z,1007.7
2022-10-25T14:41:27.000Z,1007.7
2022-10-25T14:42:39.000Z,1007.7
2022-10-25T14:43:51.000Z,1007.7
2022-10-25T14:45:03.000Z,1007.7
2022-10-25T14:46:15.000Z,1007.7
2022-10-25T14:47:27.000Z,1007.7
2022-10-25T14:48:39.000Z,1007.7
2022-10-25T14:49:51.000Z,1007.7
2022-10-25T14:51:03.000Z,1007.7
2022-10-25T14:52:15.000Z,1007.7
2022-10-25T14:53:28.000Z,1007.7
2022-10-25T14:54:40.000Z,1007.8
2022-10-25T14:55:52.000Z,1007.8
2022-10-25T14:57:04.000Z,1007.8
2022-10-25T14:58:16.000Z,1007.8
2022-10-25T14:59:29.000Z,1007.8
2022-10-25T15:00:41.000Z,1007.8
2022-10-25T15:01:53.000Z,1007.8
2022-10-25T15:03:04.000Z,1007.9
2022-10-25T15:04:16.000Z,1007.9
2022-10-25T15:05:28.000Z,1007.8
2022-10-25T15:06:41.000Z,1007.9
2022-10-25T15:07:53.000Z,1007.9
2022-10-25T15:09:05.000Z,1007.9